createdAt,value
2024-05-09T00:00:06.747Z,52.80
2024-05-09T00:01:05.250Z,52.83
2024-05-09T00:02:05.335Z,53.70
2024-05-09T00:03:05.274Z,53.60
2024-05-09T00:04:05.280Z,52.59
2024-05-09T00:05:05.323Z,51.94
2024-05-09T00:06:05.586Z,51.60
2024-05-09T00:07:05.235Z,53.77
2024-05-09T00:08:05.401Z,53.44
2024-05-09T00:09:05.227Z,53.78
2024-05-09T00:10:07.141Z,53.87
2024-05-09T00:11:05.387Z,53.97
2024-05-09T00:12:05.518Z,54.15
2024-05-09T00:13:05.432Z,54.02
2024-05-09T00:14:05.284Z,54.22
2024-05-09T00:15:05.228Z,54.13
2024-05-09T00:16:05.233Z,53.84
2024-05-09T00:17:05.302Z,53.72
2024-05-09T00:18:06.101Z,54.19
2024-05-09T00:19:05.372Z,52.84
2024-05-09T00:20:10.911Z,54.69
2024-05-09T00:21:06.450Z,54.78
2024-05-09T00:22:05.251Z,55.00
2024-05-09T00:23:05.328Z,52.13
2024-05-09T00:24:05.252Z,53.90
2024-05-09T00:25:05.224Z,54.01
2024-05-09T00:26:05.369Z,54.40
2024-05-09T00:27:05.246Z,51.68
2024-05-09T00:28:05.484Z,53.92
2024-05-09T00:29:05.334Z,52.42
2024-05-09T00:30:07.203Z,53.28
2024-05-09T00:31:05.243Z,53.08
2024-05-09T00:32:05.397Z,52.99
2024-05-09T00:33:06.601Z,53.29
2024-05-09T00:34:05.824Z,53.44
2024-05-09T00:35:05.496Z,53.27
2024-05-09T00:36:05.523Z,52.17
2024-05-09T00:37:05.665Z,52.93
2024-05-09T00:38:05.698Z,52.09
2024-05-09T00:39:05.652Z,51.90
2024-05-09T00:40:07.406Z,51.73
2024-05-09T00:41:05.786Z,52.86
2024-05-09T00:42:05.753Z,50.47
2024-05-09T00:43:05.812Z,50.68
2024-05-09T00:44:05.847Z,52.82
2024-05-09T00:45:05.841Z,51.33
2024-05-09T00:46:05.901Z,51.35
2024-05-09T00:47:06.080Z,52.22
2024-05-09T00:48:06.150Z,53.77
2024-05-09T00:49:06.070Z,52.36
2024-05-09T00:50:10.104Z,52.14
2024-05-09T00:51:07.112Z,52.26
2024-05-09T00:52:06.035Z,52.44
2024-05-09T00:53:06.180Z,52.16
2024-05-09T00:54:06.069Z,52.99
2024-05-09T00:55:06.054Z,49.12
2024-05-09T00:56:06.053Z,52.72
2024-05-09T00:57:06.115Z,52.91
2024-05-09T00:58:06.055Z,52.48
2024-05-09T00:59:06.094Z,52.31
2024-05-09T01:00:07.769Z,51.03
2024-05-09T01:01:06.088Z,51.14
2024-05-09T01:02:06.125Z,51.33
2024-05-09T01:03:06.275Z,51.95
2024-05-09T01:04:06.118Z,51.78
2024-05-09T01:05:06.137Z,52.40
2024-05-09T01:06:06.077Z,51.95
2024-05-09T01:07:06.081Z,50.01
2024-05-09T01:08:06.091Z,51.58
2024-05-09T01:09:06.068Z,51.89
2024-05-09T01:10:11.486Z,52.10
2024-05-09T01:11:07.133Z,52.24
2024-05-09T01:12:06.150Z,52.30
2024-05-09T01:13:06.490Z,52.44
2024-05-09T01:14:06.122Z,53.02
2024-05-09T01:15:06.072Z,52.91
2024-05-09T01:16:06.150Z,52.37
2024-05-09T01:17:06.107Z,51.38
2024-05-09T01:18:06.181Z,50.74
2024-05-09T01:19:06.157Z,52.30
2024-05-09T01:20:08.153Z,51.73
2024-05-09T01:21:06.084Z,51.80
2024-05-09T01:22:06.075Z,51.92
2024-05-09T01:23:06.150Z,51.99
2024-05-09T01:24:06.090Z,52.26
2024-05-09T01:25:06.056Z,51.34
2024-05-09T01:26:06.111Z,51.10
2024-05-09T01:27:06.106Z,51.69
2024-05-09T01:28:06.140Z,51.62
2024-05-09T01:29:06.132Z,52.08
2024-05-09T01:30:09.528Z,51.32
2024-05-09T01:31:07.079Z,51.47
2024-05-09T01:32:06.203Z,51.69
2024-05-09T01:33:07.887Z,51.79
2024-05-09T01:34:06.109Z,51.43
2024-05-09T01:35:06.093Z,51.47
2024-05-09T01:36:06.083Z,51.76
2024-05-09T01:37:06.110Z,52.22
2024-05-09T01:38:06.339Z,52.39
2024-05-09T01:39:06.095Z,51.73
2024-05-09T01:40:09.590Z,52.23
2024-05-09T01:41:07.133Z,52.30
2024-05-09T01:42:06.103Z,52.66
2024-05-09T01:43:06.216Z,52.52
2024-05-09T01:44:06.139Z,52.65
2024-05-09T01:45:06.093Z,53.07
2024-05-09T01:46:06.106Z,53.00
2024-05-09T01:47:06.136Z,51.40
2024-05-09T01:48:06.536Z,51.35
2024-05-09T01:49:06.281Z,52.17
2024-05-09T01:50:09.047Z,51.73
2024-05-09T01:51:06.129Z,51.81
2024-05-09T01:52:06.114Z,52.11
2024-05-09T01:53:06.201Z,52.01
2024-05-09T01:54:06.095Z,52.67
2024-05-09T01:55:06.892Z,51.20
2024-05-09T01:56:06.171Z,52.51
2024-05-09T01:57:06.154Z,51.60
2024-05-09T01:58:06.195Z,50.32
2024-05-09T01:59:06.206Z,50.80
2024-05-09T02:00:07.726Z,51.41
2024-05-09T02:01:06.192Z,52.28
2024-05-09T02:02:06.190Z,51.06
2024-05-09T02:03:06.343Z,51.77
2024-05-09T02:04:06.545Z,50.00
2024-05-09T02:05:06.433Z,52.77
2024-05-09T02:06:06.419Z,51.95
2024-05-09T02:07:06.166Z,51.27
2024-05-09T02:08:06.128Z,51.31
2024-05-09T02:09:06.141Z,52.65
2024-05-09T02:10:13.640Z,52.22
2024-05-09T02:11:07.200Z,52.30
2024-05-09T02:12:06.379Z,52.51
2024-05-09T02:13:06.131Z,52.62
2024-05-09T02:14:06.167Z,53.23
2024-05-09T02:15:06.137Z,52.76
2024-05-09T02:16:06.161Z,51.58
2024-05-09T02:17:06.234Z,52.32
2024-05-09T02:18:06.306Z,53.02
2024-05-09T02:19:06.297Z,53.02
2024-05-09T02:20:06.520Z,51.87
2024-05-09T02:21:06.188Z,51.92
2024-05-09T02:22:06.170Z,53.05
2024-05-09T02:23:06.756Z,52.53
2024-05-09T02:24:06.142Z,51.62
2024-05-09T02:26:03.885Z,50.00
2024-05-09T02:27:03.845Z,50.00
2024-05-09T02:28:03.841Z,50.00
2024-05-09T02:29:03.856Z,50.00
2024-05-09T02:30:07.840Z,50.00
2024-05-09T02:31:04.868Z,50.00
2024-05-09T02:32:03.997Z,50.00
2024-05-09T02:33:04.016Z,50.00
2024-05-09T02:34:04.088Z,50.00
2024-05-09T02:35:03.885Z,50.00
2024-05-09T02:36:03.850Z,50.00
2024-05-09T02:37:03.876Z,50.16
2024-05-09T02:38:03.947Z,50.78
2024-05-09T02:39:03.844Z,51.02
2024-05-09T02:40:05.598Z,50.35
2024-05-09T02:41:03.970Z,50.00
2024-05-09T02:42:03.872Z,50.87
2024-05-09T02:43:03.990Z,50.45
2024-05-09T02:44:03.941Z,50.65
2024-05-09T02:45:03.850Z,51.04
2024-05-09T02:46:03.903Z,50.99
2024-05-09T02:47:03.949Z,50.95
2024-05-09T02:48:04.272Z,51.49
2024-05-09T02:49:04.102Z,50.23
2024-05-09T02:50:05.969Z,51.44
2024-05-09T02:51:04.108Z,52.67
2024-05-09T02:52:04.122Z,50.59
2024-05-09T02:53:04.323Z,51.47
2024-05-09T02:54:04.189Z,51.56
2024-05-09T02:55:04.234Z,51.16
2024-05-09T02:56:04.334Z,50.82
2024-05-09T02:57:04.311Z,50.86
2024-05-09T02:58:04.362Z,52.03
2024-05-09T02:59:04.442Z,52.07
2024-05-09T03:00:06.117Z,51.00
2024-05-09T03:01:04.540Z,53.70
2024-05-09T03:02:04.587Z,50.93
2024-05-09T03:03:04.734Z,52.20
2024-05-09T03:04:04.603Z,50.97
2024-05-09T03:05:04.562Z,50.39
2024-05-09T03:06:04.528Z,50.78
2024-05-09T03:07:04.441Z,51.28
2024-05-09T03:08:04.730Z,51.63
2024-05-09T03:09:04.466Z,52.29
2024-05-09T03:10:05.764Z,51.47
2024-05-09T03:11:04.534Z,51.57
2024-05-09T03:12:04.608Z,51.88
2024-05-09T03:13:04.471Z,52.27
2024-05-09T03:14:04.511Z,52.40
2024-05-09T03:15:04.478Z,52.96
2024-05-09T03:16:04.447Z,52.82
2024-05-09T03:17:04.562Z,51.84
2024-05-09T03:18:04.783Z,51.69
2024-05-09T03:19:04.822Z,51.78
2024-05-09T03:20:06.972Z,52.29
2024-05-09T03:21:05.592Z,52.45
2024-05-09T03:22:04.546Z,52.69
2024-05-09T03:23:05.233Z,52.79
2024-05-09T03:24:04.473Z,53.06
2024-05-09T03:25:04.484Z,53.49
2024-05-09T03:26:04.516Z,53.14
2024-05-09T03:27:04.493Z,52.55
2024-05-09T03:28:04.499Z,52.09
2024-05-09T03:29:04.586Z,51.42
2024-05-09T03:30:07.306Z,52.70
2024-05-09T03:31:04.504Z,52.00
2024-05-09T03:32:04.621Z,51.56
2024-05-09T03:33:04.676Z,52.27
2024-05-09T03:34:04.842Z,51.53
2024-05-09T03:35:04.515Z,51.84
2024-05-09T03:36:06.192Z,51.51
2024-05-09T03:37:04.519Z,51.61
2024-05-09T03:38:04.586Z,51.84
2024-05-09T03:39:04.487Z,52.36
2024-05-09T03:40:09.170Z,51.07
2024-05-09T03:41:05.555Z,51.69
2024-05-09T03:42:04.538Z,52.00
2024-05-09T03:43:04.524Z,52.55
2024-05-09T03:44:04.547Z,52.53
2024-05-09T03:45:04.520Z,52.46
2024-05-09T03:46:04.522Z,52.50
2024-05-09T03:47:04.549Z,52.77
2024-05-09T03:48:04.740Z,51.71
2024-05-09T03:49:04.624Z,51.50
2024-05-09T03:50:05.780Z,51.16
2024-05-09T03:51:04.650Z,52.74
2024-05-09T03:52:04.540Z,51.19
2024-05-09T03:53:04.647Z,50.84
2024-05-09T03:54:04.515Z,51.04
2024-05-09T03:55:04.526Z,50.78
2024-05-09T03:56:04.575Z,51.05
2024-05-09T03:57:04.493Z,50.66
2024-05-09T03:58:04.509Z,50.00
2024-05-09T03:59:04.528Z,50.85
2024-05-09T04:00:07.414Z,50.75
2024-05-09T04:01:05.602Z,50.95
2024-05-09T04:02:04.650Z,51.23
2024-05-09T04:03:05.494Z,51.54
2024-05-09T04:04:04.614Z,52.03
2024-05-09T04:05:04.590Z,52.76
2024-05-09T04:06:04.571Z,52.77
2024-05-09T04:07:04.538Z,52.77
2024-05-09T04:08:04.641Z,52.50
2024-05-09T04:09:04.561Z,51.98
2024-05-09T04:10:06.796Z,51.61
2024-05-09T04:11:04.708Z,51.69
2024-05-09T04:12:04.761Z,51.98
2024-05-09T04:13:04.652Z,52.03
2024-05-09T04:14:04.631Z,51.74
2024-05-09T04:15:04.547Z,51.70
2024-05-09T04:16:04.564Z,51.44
2024-05-09T04:17:04.600Z,52.24
2024-05-09T04:18:04.786Z,51.77
2024-05-09T04:19:04.710Z,51.82
2024-05-09T04:20:06.564Z,51.88
2024-05-09T04:21:04.756Z,51.94
2024-05-09T04:22:04.586Z,52.06
2024-05-09T04:23:04.638Z,51.89
2024-05-09T04:24:04.581Z,52.23
2024-05-09T04:25:04.606Z,52.00
2024-05-09T04:26:04.676Z,50.98
2024-05-09T04:27:04.582Z,51.23
2024-05-09T04:28:04.587Z,51.66
2024-05-09T04:29:04.639Z,51.46
2024-05-09T04:30:06.192Z,51.82
2024-05-09T04:31:04.590Z,51.90
2024-05-09T04:32:04.676Z,52.03
2024-05-09T04:33:04.748Z,51.97
2024-05-09T04:34:12.343Z,50.00
2024-05-09T04:35:12.175Z,50.00
2024-05-09T04:36:12.151Z,50.00
2024-05-09T04:37:12.156Z,50.00
2024-05-09T04:38:12.245Z,50.00
2024-05-09T04:39:12.151Z,50.00
2024-05-09T04:40:21.026Z,50.32
2024-05-09T04:41:13.210Z,50.41
2024-05-09T04:42:12.128Z,50.46
2024-05-09T04:43:12.173Z,49.54
2024-05-09T04:44:12.192Z,48.69
2024-05-09T04:45:12.161Z,48.12
2024-05-09T04:46:12.162Z,50.23
2024-05-09T04:47:12.303Z,51.58
2024-05-09T04:48:12.419Z,50.10
2024-05-09T04:49:12.255Z,51.13
2024-05-09T04:50:20.993Z,50.77
2024-05-09T04:51:13.212Z,50.88
2024-05-09T04:52:12.181Z,51.08
2024-05-09T04:53:12.273Z,51.34
2024-05-09T04:54:25.753Z,50.49
2024-05-09T04:55:13.175Z,50.86
2024-05-09T04:56:12.202Z,51.00
2024-05-09T04:57:12.159Z,51.02
2024-05-09T04:58:12.247Z,50.75
2024-05-09T04:59:12.272Z,50.71
2024-05-09T05:00:14.956Z,50.16
2024-05-09T05:01:13.240Z,50.26
2024-05-09T05:02:12.256Z,50.47
2024-05-09T05:03:14.691Z,50.58
2024-05-09T05:04:12.283Z,50.25
2024-05-09T05:05:12.343Z,50.31
2024-05-09T05:06:12.187Z,50.65
2024-05-09T05:07:12.192Z,50.72
2024-05-09T05:08:12.300Z,51.40
2024-05-09T05:09:12.196Z,50.00
2024-05-09T05:10:21.321Z,51.05
2024-05-09T05:11:13.512Z,51.22
2024-05-09T05:12:12.398Z,51.30
2024-05-09T05:13:12.188Z,51.67
2024-05-09T05:14:12.194Z,52.39
2024-05-09T05:15:12.199Z,51.18
2024-05-09T05:16:12.226Z,51.98
2024-05-09T05:17:12.320Z,51.94
2024-05-09T05:18:12.247Z,50.90
2024-05-09T05:19:15.092Z,49.94
2024-05-09T05:20:15.261Z,50.08
2024-05-09T05:21:13.323Z,50.16
2024-05-09T05:22:12.217Z,50.63
2024-05-09T05:23:12.308Z,51.03
2024-05-09T05:24:12.204Z,51.45
2024-05-09T05:25:12.290Z,51.60
2024-05-09T05:26:12.308Z,51.64
2024-05-09T05:27:12.242Z,51.90
2024-05-09T05:28:12.255Z,50.85
2024-05-09T05:29:12.352Z,52.28
2024-05-09T05:31:12.317Z,50.26
2024-05-09T05:32:12.359Z,51.14
2024-05-09T05:33:12.531Z,50.30
2024-05-09T05:34:12.348Z,50.50
2024-05-09T05:35:12.363Z,50.15
2024-05-09T05:36:12.364Z,51.06
2024-05-09T05:37:12.441Z,51.17
2024-05-09T05:38:12.494Z,50.52
2024-05-09T05:39:12.505Z,51.79
2024-05-09T05:40:20.930Z,50.34
2024-05-09T05:41:13.596Z,50.46
2024-05-09T05:42:12.578Z,50.58
2024-05-09T05:43:12.553Z,50.86
2024-05-09T05:44:12.572Z,51.26
2024-05-09T05:45:12.562Z,51.25
2024-05-09T05:46:12.581Z,50.96
2024-05-09T05:47:12.701Z,50.45
2024-05-09T05:48:12.868Z,50.30
2024-05-09T05:49:12.851Z,50.58
2024-05-09T05:50:23.639Z,50.27
2024-05-09T05:51:13.795Z,50.39
2024-05-09T05:52:12.574Z,50.49
2024-05-09T05:53:12.646Z,50.56
2024-05-09T05:54:12.580Z,51.00
2024-05-09T05:55:12.600Z,50.77
2024-05-09T05:56:12.684Z,50.39
2024-05-09T05:57:12.579Z,50.04
2024-05-09T05:58:12.748Z,50.72
2024-05-09T05:59:15.049Z,50.08
2024-05-09T06:01:12.968Z,50.92
2024-05-09T06:02:13.129Z,50.78
2024-05-09T06:03:13.712Z,50.29
2024-05-09T06:04:13.144Z,50.73
2024-05-09T06:05:13.184Z,50.89
2024-05-09T06:06:13.117Z,51.19
2024-05-09T06:07:13.131Z,50.35
2024-05-09T06:08:13.266Z,50.94
2024-05-09T06:09:13.256Z,51.17
2024-05-09T06:10:20.955Z,50.00
2024-05-09T06:11:14.337Z,50.16
2024-05-09T06:12:13.429Z,50.38
2024-05-09T06:13:14.278Z,50.99
2024-05-09T06:14:13.302Z,51.71
2024-05-09T06:15:13.310Z,52.20
2024-05-09T06:16:13.324Z,52.36
2024-05-09T06:17:13.500Z,52.00
2024-05-09T06:18:13.623Z,51.46
2024-05-09T06:19:13.374Z,52.09
2024-05-09T06:20:20.450Z,52.45
2024-05-09T06:21:14.474Z,52.51
2024-05-09T06:22:13.303Z,52.72
2024-05-09T06:23:13.666Z,52.98
2024-05-09T06:24:13.290Z,52.35
2024-05-09T06:25:13.325Z,51.54
2024-05-09T06:26:13.367Z,51.33
2024-05-09T06:27:13.310Z,51.06
2024-05-09T06:28:13.315Z,51.02
2024-05-09T06:29:13.356Z,50.90
2024-05-09T06:30:24.885Z,50.02
2024-05-09T06:31:14.314Z,50.13
2024-05-09T06:32:13.388Z,50.41
2024-05-09T06:33:15.522Z,50.80
2024-05-09T06:34:13.532Z,52.11
2024-05-09T06:35:13.358Z,52.17
2024-05-09T06:36:13.306Z,51.03
2024-05-09T06:37:13.331Z,51.09
2024-05-09T06:38:13.541Z,51.21
2024-05-09T06:39:13.320Z,50.67
2024-05-09T06:40:17.431Z,52.58
2024-05-09T06:41:13.344Z,52.67
2024-05-09T06:42:13.316Z,52.93
2024-05-09T06:43:13.501Z,53.03
2024-05-09T06:44:13.374Z,52.12
2024-05-09T06:45:13.329Z,50.94
2024-05-09T06:46:13.311Z,50.96
2024-05-09T06:47:13.440Z,50.16
2024-05-09T06:48:13.524Z,51.30
2024-05-09T06:49:13.578Z,50.29
2024-05-09T06:50:20.448Z,50.58
2024-05-09T06:51:14.401Z,50.71
2024-05-09T06:52:13.316Z,51.04
2024-05-09T06:53:13.374Z,51.17
2024-05-09T06:54:13.326Z,51.55
2024-05-09T06:55:13.338Z,51.75
2024-05-09T06:56:13.424Z,52.20
2024-05-09T06:57:13.323Z,51.71
2024-05-09T06:58:13.345Z,51.34
2024-05-09T06:59:13.371Z,50.84
2024-05-09T07:01:13.381Z,50.31
2024-05-09T07:02:13.447Z,50.71
2024-05-09T07:03:15.680Z,52.17
2024-05-09T07:04:13.560Z,52.26
2024-05-09T07:05:13.515Z,52.37
2024-05-09T07:06:13.351Z,52.40
2024-05-09T07:07:13.356Z,51.68
2024-05-09T07:08:14.559Z,51.58
2024-05-09T07:09:13.382Z,52.51
2024-05-09T07:11:13.395Z,53.84
2024-05-09T07:12:13.562Z,50.00
2024-05-09T07:13:13.656Z,51.68
2024-05-09T07:14:13.456Z,52.94
2024-05-09T07:15:13.378Z,52.04
2024-05-09T07:16:13.350Z,52.51
2024-05-09T07:17:13.464Z,52.16
2024-05-09T07:18:14.074Z,52.85
2024-05-09T07:19:13.538Z,52.01
2024-05-09T07:20:19.990Z,51.29
2024-05-09T07:21:14.726Z,51.41
2024-05-09T07:22:13.354Z,51.70
2024-05-09T07:23:13.545Z,51.97
2024-05-09T07:24:13.362Z,52.45
2024-05-09T07:25:13.373Z,52.66
2024-05-09T07:26:13.415Z,51.99
2024-05-09T07:27:13.384Z,52.55
2024-05-09T07:28:13.397Z,52.77
2024-05-09T07:29:13.416Z,52.91
2024-05-09T07:31:13.385Z,53.21
2024-05-09T07:32:13.677Z,51.62
2024-05-09T07:33:13.547Z,51.72
2024-05-09T07:34:13.665Z,51.46
2024-05-09T07:35:13.440Z,52.70
2024-05-09T07:36:13.379Z,51.82
2024-05-09T07:37:13.404Z,51.43
2024-05-09T07:38:13.516Z,50.44
2024-05-09T07:39:13.374Z,52.50
2024-05-09T07:41:14.451Z,53.54
2024-05-09T07:42:13.387Z,53.97
2024-05-09T07:43:13.521Z,54.65
2024-05-09T07:44:13.421Z,54.34
2024-05-09T07:47:13.712Z,54.07
2024-05-09T07:48:28.645Z,54.13
2024-05-09T07:49:45.028Z,54.25
2024-05-09T07:53:29.603Z,54.40
2024-05-09T07:53:37.756Z,54.50
2024-05-09T07:54:14.935Z,54.48
2024-05-09T07:55:13.750Z,54.54
2024-05-09T07:56:14.105Z,55.26
2024-05-09T07:57:13.700Z,56.54
2024-05-09T07:58:13.654Z,56.14
2024-05-09T07:59:13.652Z,57.14
2024-05-09T08:00:17.332Z,55.14
2024-05-09T08:01:14.819Z,55.33
2024-05-09T08:02:13.755Z,55.72
2024-05-09T08:03:13.873Z,55.40
2024-05-09T08:04:13.807Z,55.36
2024-05-09T08:05:13.748Z,55.31
2024-05-09T08:06:13.701Z,53.87
2024-05-09T08:07:13.847Z,55.41
2024-05-09T08:08:13.675Z,55.11
2024-05-09T08:09:16.987Z,53.70
2024-05-09T08:10:19.126Z,53.85
2024-05-09T08:11:14.781Z,53.92
2024-05-09T08:12:13.667Z,54.48
2024-05-09T08:13:13.762Z,54.77
2024-05-09T08:14:13.693Z,55.01
2024-05-09T08:15:13.686Z,57.15
2024-05-09T08:16:13.919Z,53.99
2024-05-09T08:17:13.735Z,54.33
2024-05-09T08:18:13.833Z,56.22
2024-05-09T08:19:13.799Z,54.55
2024-05-09T08:20:22.830Z,53.03
2024-05-09T08:21:14.699Z,53.14
2024-05-09T08:22:13.827Z,53.53
2024-05-09T08:23:13.693Z,53.61
2024-05-09T08:24:13.672Z,53.46
2024-05-09T08:25:14.396Z,52.49
2024-05-09T08:26:13.698Z,53.90
2024-05-09T08:27:13.760Z,53.52
2024-05-09T08:28:14.039Z,51.75
2024-05-09T08:29:13.703Z,52.95
2024-05-09T08:31:13.751Z,50.33
2024-05-09T08:32:13.843Z,51.92
2024-05-09T08:33:13.928Z,53.70
2024-05-09T08:34:13.888Z,53.50
2024-05-09T08:35:13.709Z,51.86
2024-05-09T08:36:13.719Z,52.61
2024-05-09T08:38:13.775Z,51.85
2024-05-09T08:39:13.697Z,50.63
2024-05-09T08:40:23.632Z,50.88
2024-05-09T08:41:14.709Z,50.98
2024-05-09T08:42:13.722Z,51.36
2024-05-09T08:43:13.995Z,52.00
2024-05-09T08:44:13.722Z,51.80
2024-05-09T08:45:13.727Z,52.03
2024-05-09T08:46:13.875Z,51.64
2024-05-09T08:47:13.759Z,52.26
2024-05-09T08:48:15.226Z,50.93
2024-05-09T08:49:13.920Z,53.36
2024-05-09T08:50:23.575Z,50.00
2024-05-09T08:51:14.791Z,50.09
2024-05-09T08:52:13.824Z,50.54
2024-05-09T08:53:13.785Z,50.30
2024-05-09T08:54:13.765Z,52.40
2024-05-09T08:55:13.864Z,52.76
2024-05-09T08:56:13.783Z,51.21
2024-05-09T08:57:13.775Z,53.92
2024-05-09T08:58:14.140Z,53.46
2024-05-09T08:59:13.782Z,52.05
2024-05-09T09:00:18.162Z,51.12
2024-05-09T09:01:14.880Z,51.26
2024-05-09T09:02:14.165Z,51.46
2024-05-09T09:03:13.850Z,51.94
2024-05-09T09:04:14.002Z,52.33
2024-05-09T09:05:13.941Z,55.21
2024-05-09T09:06:13.801Z,53.63
2024-05-09T09:07:13.908Z,52.87
2024-05-09T09:08:13.826Z,53.58
2024-05-09T09:09:13.811Z,53.66
2024-05-09T09:10:21.112Z,53.19
2024-05-09T09:11:14.854Z,53.26
2024-05-09T09:12:13.821Z,52.38
2024-05-09T09:13:14.037Z,53.01
2024-05-09T09:14:13.847Z,54.20
2024-05-09T09:15:13.835Z,53.47
2024-05-09T09:16:13.862Z,53.16
2024-05-09T09:17:13.840Z,52.14
2024-05-09T09:18:13.911Z,51.52
2024-05-09T09:19:14.023Z,51.52
2024-05-09T09:20:16.720Z,52.58
2024-05-09T09:21:14.846Z,52.68
2024-05-09T09:22:13.840Z,52.58
2024-05-09T09:23:13.837Z,52.69
2024-05-09T09:24:13.832Z,53.74
2024-05-09T09:25:13.887Z,53.94
2024-05-09T09:26:13.826Z,52.71
2024-05-09T09:27:13.859Z,51.44
2024-05-09T09:28:13.920Z,54.45
2024-05-09T09:29:13.835Z,52.16
2024-05-09T09:30:27.687Z,50.96
2024-05-09T09:31:14.928Z,51.06
2024-05-09T09:32:13.917Z,51.45
2024-05-09T09:33:14.107Z,51.33
2024-05-09T09:34:13.970Z,51.08
2024-05-09T09:35:13.920Z,49.46
2024-05-09T09:36:13.918Z,51.41
2024-05-09T09:37:13.995Z,51.67
2024-05-09T09:38:13.985Z,52.64
2024-05-09T09:39:14.014Z,54.84
2024-05-09T09:40:17.997Z,54.33
2024-05-09T09:41:14.164Z,54.48
2024-05-09T09:42:14.102Z,54.48
2024-05-09T09:43:14.424Z,54.62
2024-05-09T09:44:14.135Z,56.08
2024-05-09T09:45:14.092Z,54.92
2024-05-09T09:46:14.224Z,53.15
2024-05-09T09:47:14.177Z,54.19
2024-05-09T09:48:14.189Z,54.04
2024-05-09T09:49:14.337Z,52.90
2024-05-09T09:50:17.112Z,55.08
2024-05-09T09:51:15.087Z,55.18
2024-05-09T09:52:14.180Z,55.17
2024-05-09T09:53:14.136Z,52.89
2024-05-09T09:54:14.093Z,55.64
2024-05-09T09:55:14.167Z,54.91
2024-05-09T09:56:14.098Z,52.55
2024-05-09T09:57:14.106Z,52.79
2024-05-09T09:58:14.696Z,53.29
2024-05-09T09:59:14.191Z,53.67
2024-05-09T10:00:20.712Z,52.78
2024-05-09T10:01:15.352Z,52.88
2024-05-09T10:02:14.487Z,52.90
2024-05-09T10:03:14.318Z,53.26
2024-05-09T10:04:14.344Z,49.84
2024-05-09T10:05:14.396Z,52.66
2024-05-09T10:06:14.251Z,53.75
2024-05-09T10:07:14.359Z,53.26
2024-05-09T10:08:14.243Z,52.13
2024-05-09T10:09:14.278Z,52.97
2024-05-09T10:10:19.856Z,51.37
2024-05-09T10:11:15.343Z,51.44
2024-05-09T10:12:14.446Z,52.00
2024-05-09T10:13:14.504Z,52.58
2024-05-09T10:14:14.350Z,51.85
2024-05-09T10:15:14.387Z,54.56
2024-05-09T10:16:14.462Z,53.59
2024-05-09T10:17:14.367Z,52.43
2024-05-09T10:18:14.627Z,52.69
2024-05-09T10:19:14.507Z,53.88
2024-05-09T10:20:21.427Z,51.80
2024-05-09T10:21:15.403Z,51.93
2024-05-09T10:22:14.573Z,52.20
2024-05-09T10:23:14.458Z,52.62
2024-05-09T10:24:14.409Z,53.07
2024-05-09T10:25:14.485Z,52.72
2024-05-09T10:26:14.430Z,54.63
2024-05-09T10:27:14.422Z,52.16
2024-05-09T10:28:14.561Z,53.97
2024-05-09T10:29:14.432Z,53.25
2024-05-09T10:30:21.293Z,53.70
2024-05-09T10:31:15.780Z,53.82
2024-05-09T10:32:14.535Z,53.74
2024-05-09T10:33:14.697Z,53.77
2024-05-09T10:34:14.727Z,52.83
2024-05-09T10:35:14.491Z,53.07
2024-05-09T10:36:14.546Z,55.58
2024-05-09T10:37:14.639Z,53.67
2024-05-09T10:38:14.909Z,54.91
2024-05-09T10:39:14.506Z,55.87
2024-05-09T10:40:23.262Z,55.44
2024-05-09T10:41:15.549Z,55.49
2024-05-09T10:42:14.534Z,55.57
2024-05-09T10:43:14.649Z,55.73
2024-05-09T10:44:14.522Z,56.26
2024-05-09T10:45:14.535Z,55.10
2024-05-09T10:46:14.852Z,54.93
2024-05-09T10:47:14.546Z,53.24
2024-05-09T10:48:14.583Z,56.30
2024-05-09T10:49:14.694Z,53.81
2024-05-09T10:50:22.294Z,53.01
2024-05-09T10:51:15.575Z,53.15
2024-05-09T10:52:14.594Z,53.48
2024-05-09T10:53:14.544Z,53.72
2024-05-09T10:54:14.535Z,54.23
2024-05-09T10:55:14.626Z,54.61
2024-05-09T10:56:14.686Z,53.69
2024-05-09T10:57:14.534Z,55.29
2024-05-09T10:58:14.742Z,53.73
2024-05-09T10:59:14.544Z,54.65
2024-05-09T11:00:23.269Z,53.94
2024-05-09T11:01:15.628Z,53.99
2024-05-09T11:02:14.762Z,54.08
2024-05-09T11:03:14.685Z,54.73
2024-05-09T11:04:14.908Z,52.74
2024-05-09T11:05:14.617Z,56.54
2024-05-09T11:06:14.567Z,53.95
2024-05-09T11:07:14.754Z,54.27
2024-05-09T11:08:14.567Z,54.62
2024-05-09T11:09:14.573Z,54.03
2024-05-09T11:10:17.937Z,55.56
2024-05-09T11:11:15.607Z,55.63
2024-05-09T11:12:14.609Z,55.82
2024-05-09T11:13:14.748Z,56.02
2024-05-09T11:14:14.552Z,56.90
2024-05-09T11:15:14.546Z,55.25
2024-05-09T11:16:14.593Z,53.83
2024-05-09T11:17:14.610Z,54.82
2024-05-09T11:18:14.624Z,53.92
2024-05-09T11:19:14.878Z,53.71
2024-05-09T11:20:22.645Z,53.23
2024-05-09T11:21:15.590Z,53.33
2024-05-09T11:22:14.619Z,53.27
2024-05-09T11:23:14.577Z,52.26
2024-05-09T11:24:14.596Z,53.58
2024-05-09T11:25:14.665Z,54.78
2024-05-09T11:26:14.592Z,54.83
2024-05-09T11:27:14.560Z,54.95
2024-05-09T11:28:14.785Z,54.15
2024-05-09T11:29:17.921Z,53.24
2024-05-09T11:30:23.765Z,53.36
2024-05-09T11:31:15.666Z,53.46
2024-05-09T11:32:14.693Z,53.61
2024-05-09T11:33:14.709Z,54.75
2024-05-09T11:34:14.630Z,54.56
2024-05-09T11:35:14.614Z,55.33
2024-05-09T11:36:14.585Z,54.30
2024-05-09T11:37:14.765Z,52.62
2024-05-09T11:38:14.637Z,55.24
2024-05-09T11:39:14.737Z,56.47
2024-05-09T11:40:21.437Z,56.25
2024-05-09T11:41:15.613Z,56.32
2024-05-09T11:42:14.600Z,55.28
2024-05-09T11:43:14.655Z,56.74
2024-05-09T11:44:14.637Z,55.26
2024-05-09T11:45:14.590Z,54.42
2024-05-09T11:46:14.915Z,53.82
2024-05-09T11:47:14.664Z,53.56
2024-05-09T11:48:14.719Z,53.19
2024-05-09T11:49:14.751Z,54.98
2024-05-09T11:50:22.526Z,52.32
2024-05-09T11:51:15.623Z,52.42
2024-05-09T11:52:14.704Z,52.90
2024-05-09T11:53:14.931Z,53.60
2024-05-09T11:54:14.621Z,53.93
2024-05-09T11:55:14.787Z,54.16
2024-05-09T11:56:14.623Z,55.68
2024-05-09T11:57:14.618Z,55.00
2024-05-09T11:58:14.743Z,52.40
2024-05-09T11:59:14.629Z,52.71
2024-05-09T12:00:20.793Z,52.53
2024-05-09T12:01:15.700Z,52.60
2024-05-09T12:02:15.580Z,52.81
2024-05-09T12:03:14.870Z,52.35
2024-05-09T12:04:14.943Z,53.16
2024-05-09T12:05:14.759Z,52.11
2024-05-09T12:06:14.677Z,51.94
2024-05-09T12:07:14.725Z,52.53
2024-05-09T12:08:14.639Z,50.40
2024-05-09T12:09:14.653Z,54.42
2024-05-09T12:10:19.802Z,54.19
2024-05-09T12:11:15.698Z,54.24
2024-05-09T12:12:14.653Z,53.13
2024-05-09T12:13:14.710Z,54.06
2024-05-09T12:14:14.648Z,52.80
2024-05-09T12:15:14.674Z,53.37
2024-05-09T12:16:14.795Z,52.90
2024-05-09T12:17:14.734Z,52.58
2024-05-09T12:18:14.703Z,51.34
2024-05-09T12:19:14.694Z,52.43
2024-05-09T12:20:21.453Z,52.00
2024-05-09T12:21:15.675Z,52.05
2024-05-09T12:22:14.804Z,52.13
2024-05-09T12:23:14.928Z,52.37
2024-05-09T12:24:18.264Z,53.33
2024-05-09T12:25:14.835Z,52.09
2024-05-09T12:26:14.667Z,52.18
2024-05-09T12:27:14.686Z,52.05
2024-05-09T12:28:15.021Z,52.21
2024-05-09T12:29:14.707Z,53.64
2024-05-09T12:30:20.908Z,50.84
2024-05-09T12:31:15.738Z,50.99
2024-05-09T12:32:14.680Z,51.19
2024-05-09T12:33:14.747Z,50.96
2024-05-09T12:34:14.925Z,51.87
2024-05-09T12:35:14.814Z,50.19
2024-05-09T12:36:14.726Z,51.93
2024-05-09T12:37:14.792Z,51.83
2024-05-09T12:38:14.925Z,50.00
2024-05-09T12:39:14.708Z,52.97
2024-05-09T12:40:22.914Z,51.81
2024-05-09T12:41:15.714Z,51.87
2024-05-09T12:42:26.335Z,51.93
2024-05-09T12:43:15.736Z,51.90
2024-05-09T12:44:14.730Z,52.39
2024-05-09T12:45:14.783Z,52.71
2024-05-09T12:46:14.737Z,51.84
2024-05-09T12:47:14.772Z,51.50
2024-05-09T12:48:14.838Z,52.57
2024-05-09T12:49:17.348Z,52.17
2024-05-09T12:50:22.341Z,52.22
2024-05-09T12:51:15.736Z,52.22
2024-05-09T12:52:14.844Z,52.66
2024-05-09T12:53:14.725Z,52.81
2024-05-09T12:54:14.740Z,53.46
2024-05-09T12:55:14.792Z,53.15
2024-05-09T12:56:14.777Z,50.00
2024-05-09T12:57:14.777Z,51.56
2024-05-09T12:58:14.794Z,50.59
2024-05-09T12:59:14.779Z,52.66
2024-05-09T13:00:23.476Z,52.82
2024-05-09T13:01:15.851Z,52.93
2024-05-09T13:02:14.983Z,52.83
2024-05-09T13:03:15.208Z,53.24
2024-05-09T13:04:14.901Z,52.39
2024-05-09T13:05:15.037Z,53.02